createdAt,value
2019-03-09T00:00:26.730Z,993.88
2019-03-09T00:01:26.714Z,993.87
2019-03-09T00:02:26.686Z,993.87
2019-03-09T00:03:26.670Z,993.93
2019-03-09T00:04:26.637Z,993.90
2019-03-09T00:05:26.618Z,993.91
2019-03-09T00:06:26.592Z,993.90
2019-03-09T00:07:26.570Z,993.90
2019-03-09T00:08:26.551Z,993.90
2019-03-09T00:09:26.525Z,993.95
2019-03-09T00:10:26.509Z,993.97
2019-03-09T00:11:26.480Z,994.02
2019-03-09T00:12:26.461Z,993.96
2019-03-09T00:13:26.434Z,993.96
2019-03-09T00:14:26.419Z,993.94
2019-03-09T00:15:26.397Z,993.89
2019-03-09T00:16:26.368Z,993.88
2019-03-09T00:17:26.339Z,993.89
2019-03-09T00:18:26.318Z,993.80
2019-03-09T00:19:26.353Z,993.85
2019-03-09T00:20:26.279Z,993.83
2019-03-09T00:21:26.256Z,993.82
2019-03-09T00:22:26.227Z,993.81
2019-03-09T00:23:26.209Z,993.79
2019-03-09T00:24:26.181Z,993.79
2019-03-09T00:25:26.160Z,993.71
2019-03-09T00:26:26.141Z,993.72
2019-03-09T00:27:29.868Z,993.72
2019-03-09T00:28:26.089Z,993.73
2019-03-09T00:29:26.063Z,993.63
2019-03-09T00:30:26.049Z,993.63
2019-03-09T00:31:26.027Z,993.66
2019-03-09T00:32:26.006Z,993.68
2019-03-09T00:33:25.982Z,993.72
2019-03-09T00:34:25.959Z,993.67
2019-03-09T00:35:25.928Z,993.66
2019-03-09T00:36:25.914Z,993.68
2019-03-09T00:37:25.889Z,993.73
2019-03-09T00:38:25.867Z,993.72
2019-03-09T00:39:25.838Z,993.71
2019-03-09T00:40:25.816Z,993.70
2019-03-09T00:41:25.800Z,993.70
2019-03-09T00:42:25.772Z,993.72
2019-03-09T00:43:25.752Z,993.73
2019-03-09T00:44:25.736Z,993.65
2019-03-09T00:45:25.701Z,993.68
2019-03-09T00:46:25.679Z,993.65
2019-03-09T00:47:25.656Z,993.62
2019-03-09T00:48:25.634Z,993.68
2019-03-09T00:49:25.611Z,993.69
2019-03-09T00:50:25.593Z,993.59
2019-03-09T00:51:25.573Z,993.59
2019-03-09T00:52:25.541Z,993.53
2019-03-09T00:53:25.531Z,993.53
2019-03-09T00:54:25.518Z,993.60
2019-03-09T00:55:25.477Z,993.55
2019-03-09T00:56:25.458Z,993.50
2019-03-09T00:57:25.430Z,993.50
2019-03-09T00:58:25.414Z,993.46
2019-03-09T00:59:25.400Z,993.44
2019-03-09T01:00:25.373Z,993.47
2019-03-09T01:01:25.350Z,993.41
2019-03-09T01:02:25.314Z,993.44
2019-03-09T01:03:25.296Z,993.38
2019-03-09T01:04:25.276Z,993.47
2019-03-09T01:05:25.254Z,993.43
2019-03-09T01:06:25.229Z,993.38
2019-03-09T01:07:25.203Z,993.44
2019-03-09T01:08:25.181Z,993.39
2019-03-09T01:09:25.165Z,993.32
2019-03-09T01:10:25.143Z,993.31
2019-03-09T01:11:25.114Z,993.30
2019-03-09T01:12:25.096Z,993.21
2019-03-09T01:13:25.072Z,993.24
2019-03-09T01:14:25.062Z,993.29
2019-03-09T01:15:25.029Z,993.25
2019-03-09T01:16:25.008Z,993.25
2019-03-09T01:17:24.978Z,993.23
2019-03-09T01:18:24.981Z,993.14
2019-03-09T01:19:24.941Z,993.16
2019-03-09T01:20:24.911Z,993.10
2019-03-09T01:21:24.896Z,993.05
2019-03-09T01:22:24.870Z,993.06
2019-03-09T01:23:24.845Z,993.00
2019-03-09T01:24:24.826Z,992.91
2019-03-09T01:25:24.794Z,992.91
2019-03-09T01:26:24.783Z,992.94
2019-03-09T01:27:24.755Z,992.93
2019-03-09T01:28:24.748Z,992.82
2019-03-09T01:29:24.707Z,992.87
2019-03-09T01:30:24.688Z,992.83
2019-03-09T01:31:24.666Z,992.91
2019-03-09T01:32:24.645Z,992.97
2019-03-09T01:33:24.620Z,992.92
2019-03-09T01:34:24.595Z,992.93
2019-03-09T01:35:24.575Z,992.90
2019-03-09T01:36:24.549Z,992.90
2019-03-09T01:37:24.559Z,992.85
2019-03-09T01:38:24.514Z,992.85
2019-03-09T01:39:24.486Z,992.75
2019-03-09T01:40:24.460Z,992.74
2019-03-09T01:41:24.442Z,992.72
2019-03-09T01:42:24.424Z,992.65
2019-03-09T01:43:24.401Z,992.59
2019-03-09T01:44:24.372Z,992.67
2019-03-09T01:45:24.354Z,992.57
2019-03-09T01:46:24.328Z,992.55
2019-03-09T01:47:24.312Z,992.53
2019-03-09T01:48:24.280Z,992.52
2019-03-09T01:49:24.261Z,992.44
2019-03-09T01:50:24.238Z,992.44
2019-03-09T01:51:24.222Z,992.44
2019-03-09T01:52:24.191Z,992.46
2019-03-09T01:53:24.175Z,992.50
2019-03-09T01:54:24.145Z,992.38
2019-03-09T01:55:24.129Z,992.41
2019-03-09T01:56:24.100Z,992.40
2019-03-09T01:57:24.077Z,992.36
2019-03-09T01:58:24.095Z,992.39
2019-03-09T01:59:24.035Z,992.32
2019-03-09T02:00:24.010Z,992.35
2019-03-09T02:01:23.988Z,992.28
2019-03-09T02:02:23.966Z,992.30
2019-03-09T02:03:23.944Z,992.23
2019-03-09T02:04:23.924Z,992.24
2019-03-09T02:05:23.905Z,992.19
2019-03-09T02:06:23.882Z,992.21
2019-03-09T02:07:23.854Z,992.15
2019-03-09T02:08:23.830Z,992.17
2019-03-09T02:09:23.807Z,992.14
2019-03-09T02:10:23.785Z,992.00
2019-03-09T02:11:23.766Z,992.13
2019-03-09T02:12:23.749Z,992.07
2019-03-09T02:13:23.722Z,992.02
2019-03-09T02:14:23.738Z,992.01
2019-03-09T02:15:23.701Z,991.97
2019-03-09T02:16:23.648Z,991.94
2019-03-09T02:17:23.627Z,991.93
2019-03-09T02:18:23.604Z,991.87
2019-03-09T02:19:23.588Z,991.83
2019-03-09T02:20:23.557Z,991.84
2019-03-09T02:21:23.536Z,991.91
2019-03-09T02:22:23.522Z,991.86
2019-03-09T02:23:23.496Z,991.81
2019-03-09T02:24:23.467Z,991.83
2019-03-09T02:25:23.451Z,991.84
2019-03-09T02:26:23.430Z,991.78
2019-03-09T02:27:23.403Z,991.79
2019-03-09T02:28:23.377Z,991.77
2019-03-09T02:29:23.356Z,991.74
2019-03-09T02:30:23.334Z,991.64
2019-03-09T02:31:23.318Z,991.66
2019-03-09T02:32:23.295Z,991.76
2019-03-09T02:33:23.270Z,991.68
2019-03-09T02:34:23.248Z,991.61
2019-03-09T02:35:23.228Z,991.60
2019-03-09T02:36:23.203Z,991.58
2019-03-09T02:37:23.194Z,991.57
2019-03-09T02:38:23.174Z,991.51
2019-03-09T02:39:23.133Z,991.55
2019-03-09T02:40:23.343Z,991.58
2019-03-09T02:41:23.091Z,991.49
2019-03-09T02:42:23.069Z,991.51
2019-03-09T02:43:23.047Z,991.56
2019-03-09T02:44:23.020Z,991.54
2019-03-09T02:45:23.032Z,991.53
2019-03-09T02:46:22.975Z,991.51
2019-03-09T02:47:23.002Z,991.43
2019-03-09T02:48:22.933Z,991.55
2019-03-09T02:49:22.911Z,991.50
2019-03-09T02:50:22.892Z,991.50
2019-03-09T02:51:22.861Z,991.52
2019-03-09T02:52:22.849Z,991.52
2019-03-09T02:53:22.818Z,991.56
2019-03-09T02:54:22.795Z,991.45
2019-03-09T02:55:22.782Z,991.50
2019-03-09T02:56:22.762Z,991.44
2019-03-09T02:57:22.728Z,991.41
2019-03-09T02:58:22.710Z,991.37
2019-03-09T02:59:22.683Z,991.42
2019-03-09T03:00:22.674Z,991.36
2019-03-09T03:01:22.668Z,991.37
2019-03-09T03:02:22.633Z,991.42
2019-03-09T03:03:22.598Z,991.38
2019-03-09T03:04:22.586Z,991.39
2019-03-09T03:05:22.547Z,991.35
2019-03-09T03:06:22.526Z,991.33
2019-03-09T03:07:22.510Z,991.32
2019-03-09T03:08:22.483Z,991.25
2019-03-09T03:09:22.464Z,991.32
2019-03-09T03:10:22.446Z,991.29
2019-03-09T03:11:22.414Z,991.27
2019-03-09T03:12:22.391Z,991.10
2019-03-09T03:13:22.371Z,991.08
2019-03-09T03:14:22.346Z,991.16
2019-03-09T03:15:22.322Z,991.13
2019-03-09T03:16:22.308Z,991.18
2019-03-09T03:17:22.283Z,991.03
2019-03-09T03:18:22.258Z,991.01
2019-03-09T03:19:22.237Z,991.00
2019-03-09T03:20:22.214Z,990.99
2019-03-09T03:21:22.196Z,990.93
2019-03-09T03:22:22.169Z,990.95
2019-03-09T03:23:22.147Z,990.93
2019-03-09T03:24:22.118Z,990.92
2019-03-09T03:25:22.100Z,990.95
2019-03-09T03:26:22.077Z,990.93
2019-03-09T03:27:22.049Z,990.97
2019-03-09T03:28:22.048Z,990.96
2019-03-09T03:29:22.008Z,991.02
2019-03-09T03:30:21.994Z,990.93
2019-03-09T03:31:21.961Z,990.96
2019-03-09T03:32:21.945Z,990.88
2019-03-09T03:33:21.916Z,990.87
2019-03-09T03:34:21.924Z,990.90
2019-03-09T03:35:21.883Z,990.92
2019-03-09T03:36:21.846Z,990.88
2019-03-09T03:37:21.829Z,990.73
2019-03-09T03:38:21.805Z,990.80
2019-03-09T03:39:21.786Z,990.76
2019-03-09T03:40:21.753Z,990.75
2019-03-09T03:41:21.743Z,990.77
2019-03-09T03:42:21.707Z,990.85
2019-03-09T03:43:21.689Z,990.79
2019-03-09T03:44:21.661Z,990.75
2019-03-09T03:45:21.637Z,990.80
2019-03-09T03:46:21.617Z,990.88
2019-03-09T03:47:21.610Z,990.86
2019-03-09T03:48:21.576Z,990.86
2019-03-09T03:49:21.565Z,990.84
2019-03-09T03:50:21.524Z,990.88
2019-03-09T03:51:21.498Z,990.86
2019-03-09T03:52:21.476Z,990.92
2019-03-09T03:53:21.455Z,990.99
2019-03-09T03:54:21.443Z,990.87
2019-03-09T03:55:21.415Z,990.88
2019-03-09T03:56:21.389Z,990.72
2019-03-09T03:57:21.362Z,990.74
2019-03-09T03:58:21.342Z,990.78
2019-03-09T03:59:21.323Z,990.81
2019-03-09T04:00:21.297Z,990.71
2019-03-09T04:01:21.274Z,990.75
2019-03-09T04:02:21.255Z,990.84
2019-03-09T04:03:21.232Z,990.88
2019-03-09T04:04:21.201Z,990.88
2019-03-09T04:05:21.176Z,990.97
2019-03-09T04:06:21.167Z,990.78
2019-03-09T04:07:21.133Z,990.81
2019-03-09T04:08:21.113Z,990.81
2019-03-09T04:09:21.084Z,990.80
2019-03-09T04:10:21.063Z,990.75
2019-03-09T04:11:21.040Z,990.77
2019-03-09T04:12:21.021Z,990.81
2019-03-09T04:13:20.992Z,990.82
2019-03-09T04:14:20.995Z,990.91
2019-03-09T04:15:20.948Z,990.94
2019-03-09T04:16:20.954Z,990.90
2019-03-09T04:17:20.920Z,990.82
2019-03-09T04:18:20.877Z,990.86
2019-03-09T04:19:20.861Z,990.89
2019-03-09T04:20:20.834Z,990.89
2019-03-09T04:21:20.812Z,990.94
2019-03-09T04:22:20.787Z,990.98
2019-03-09T04:23:20.765Z,990.97
2019-03-09T04:24:20.739Z,990.98
2019-03-09T04:25:20.713Z,991.01
2019-03-09T04:26:20.727Z,991.09
2019-03-09T04:27:20.665Z,991.04
2019-03-09T04:28:20.643Z,991.02
2019-03-09T04:29:20.627Z,991.00
2019-03-09T04:30:20.599Z,990.95
2019-03-09T04:31:20.573Z,991.06
2019-03-09T04:32:20.552Z,991.03
2019-03-09T04:33:20.527Z,991.06
2019-03-09T04:34:20.509Z,990.97
2019-03-09T04:35:20.481Z,990.99
2019-03-09T04:36:20.468Z,991.05
2019-03-09T04:37:20.437Z,991.02
2019-03-09T04:38:20.414Z,991.12
2019-03-09T04:39:20.389Z,991.08
2019-03-09T04:40:20.390Z,991.13
2019-03-09T04:41:20.345Z,991.09
2019-03-09T04:42:20.319Z,991.07
2019-03-09T04:43:20.297Z,991.16
2019-03-09T04:44:20.270Z,991.13
2019-03-09T04:45:20.246Z,991.15
2019-03-09T04:46:20.231Z,991.14
2019-03-09T04:47:20.201Z,991.15
2019-03-09T04:48:20.195Z,991.13
2019-03-09T04:49:20.154Z,991.13
2019-03-09T04:50:20.139Z,991.22
2019-03-09T04:51:20.109Z,991.25
2019-03-09T04:52:20.083Z,991.23
2019-03-09T04:53:20.083Z,991.33
2019-03-09T04:54:20.037Z,991.32
2019-03-09T04:55:20.014Z,991.22
2019-03-09T04:56:19.992Z,991.16
2019-03-09T04:57:19.972Z,991.21
2019-03-09T04:58:19.947Z,991.24
2019-03-09T04:59:19.921Z,991.31
2019-03-09T05:00:19.899Z,991.28
2019-03-09T05:01:19.882Z,991.35
2019-03-09T05:02:19.854Z,991.38
2019-03-09T05:03:19.837Z,991.19
2019-03-09T05:04:19.807Z,991.25
2019-03-09T05:05:19.783Z,991.31
2019-03-09T05:06:19.760Z,991.29
2019-03-09T05:07:19.738Z,991.25
2019-03-09T05:08:19.712Z,991.34
2019-03-09T05:09:19.693Z,991.23
2019-03-09T05:10:19.677Z,991.40
2019-03-09T05:11:19.644Z,991.27
2019-03-09T05:12:19.623Z,991.33
2019-03-09T05:13:19.607Z,991.21
2019-03-09T05:14:19.580Z,991.36
2019-03-09T05:15:19.551Z,991.22
2019-03-09T05:16:19.529Z,991.23
2019-03-09T05:17:19.506Z,991.20
2019-03-09T05:18:19.484Z,991.23
2019-03-09T05:19:19.465Z,991.35
2019-03-09T05:20:19.444Z,991.31
2019-03-09T05:21:19.413Z,991.38
2019-03-09T05:22:19.397Z,991.26
2019-03-09T05:23:19.375Z,991.55
2019-03-09T05:24:19.346Z,991.39
2019-03-09T05:25:19.322Z,991.29
2019-03-09T05:26:19.298Z,991.32
2019-03-09T05:27:19.276Z,991.39
2019-03-09T05:28:19.253Z,991.41
2019-03-09T05:29:19.230Z,991.35
2019-03-09T05:30:19.257Z,991.27
2019-03-09T05:31:19.182Z,991.32
2019-03-09T05:32:19.160Z,991.37
2019-03-09T05:33:19.140Z,991.31
2019-03-09T05:34:19.115Z,991.36
2019-03-09T05:35:19.115Z,991.41
2019-03-09T05:36:19.067Z,991.36
2019-03-09T05:37:19.047Z,991.28
2019-03-09T05:38:19.023Z,991.36
2019-03-09T05:39:19.007Z,991.51
2019-03-09T05:40:18.977Z,991.46
2019-03-09T05:41:18.959Z,991.39
2019-03-09T05:42:18.929Z,991.40
2019-03-09T05:43:18.916Z,991.36
2019-03-09T05:44:18.883Z,991.31
2019-03-09T05:45:18.859Z,991.30
2019-03-09T05:46:18.838Z,991.63
2019-03-09T05:47:18.819Z,991.66
2019-03-09T05:48:18.799Z,991.62
2019-03-09T05:49:18.774Z,991.64
2019-03-09T05:50:18.774Z,991.51
2019-03-09T05:51:18.722Z,991.53
2019-03-09T05:52:18.710Z,991.53
2019-03-09T05:53:18.678Z,991.59
2019-03-09T05:54:18.659Z,991.62
2019-03-09T05:55:18.634Z,991.62
2019-03-09T05:56:18.608Z,991.75
2019-03-09T05:57:18.608Z,991.74
2019-03-09T05:58:18.563Z,991.60
2019-03-09T05:59:18.544Z,991.52
2019-03-09T06:00:18.516Z,991.56
2019-03-09T06:01:18.525Z,991.59
2019-03-09T06:02:18.474Z,991.50
2019-03-09T06:03:18.448Z,991.76
2019-03-09T06:04:18.426Z,991.81
2019-03-09T06:05:18.486Z,991.82
2019-03-09T06:06:18.408Z,991.94
2019-03-09T06:07:18.362Z,992.04
2019-03-09T06:08:18.334Z,992.02
2019-03-09T06:09:18.324Z,992.08
2019-03-09T06:10:18.292Z,991.98
2019-03-09T06:11:18.266Z,991.96
2019-03-09T06:12:18.246Z,991.99
2019-03-09T06:13:18.219Z,991.99
2019-03-09T06:14:18.202Z,991.95
2019-03-09T06:15:18.177Z,992.00
2019-03-09T06:16:18.152Z,991.94
2019-03-09T06:17:18.129Z,992.19
2019-03-09T06:18:18.113Z,992.23
2019-03-09T06:19:18.091Z,992.20
2019-03-09T06:20:18.065Z,992.18
2019-03-09T06:21:18.045Z,992.12
2019-03-09T06:22:18.021Z,992.12
2019-03-09T06:23:17.995Z,992.05
2019-03-09T06:24:17.970Z,992.16
2019-03-09T06:25:17.954Z,992.21
2019-03-09T06:26:17.933Z,992.13
2019-03-09T06:27:17.922Z,992.15
2019-03-09T06:28:17.885Z,992.21
2019-03-09T06:29:17.861Z,992.21
2019-03-09T06:30:17.834Z,992.18
2019-03-09T06:31:17.818Z,992.23
2019-03-09T06:32:17.793Z,992.33
2019-03-09T06:33:17.777Z,992.23
2019-03-09T06:34:17.741Z,992.30
2019-03-09T06:35:17.751Z,992.37
2019-03-09T06:36:17.701Z,992.49
2019-03-09T06:37:17.673Z,992.64
2019-03-09T06:38:17.653Z,992.68
2019-03-09T06:39:17.627Z,992.91
2019-03-09T06:40:17.614Z,992.95
2019-03-09T06:41:17.583Z,992.93
2019-03-09T06:42:17.561Z,992.91
2019-03-09T06:43:17.538Z,992.78
2019-03-09T06:44:17.515Z,992.83
2019-03-09T06:45:17.493Z,992.85
2019-03-09T06:46:17.471Z,992.91
2019-03-09T06:47:17.455Z,992.77
2019-03-09T06:48:17.434Z,992.74
2019-03-09T06:49:17.403Z,992.69
2019-03-09T06:50:17.381Z,992.66
2019-03-09T06:51:17.357Z,992.52
2019-03-09T06:52:17.332Z,992.58
2019-03-09T06:53:17.315Z,992.58
2019-03-09T06:54:17.303Z,992.68
2019-03-09T06:55:17.273Z,992.66
2019-03-09T06:56:17.247Z,992.80
2019-03-09T06:57:17.219Z,992.78
2019-03-09T06:58:17.200Z,992.87
2019-03-09T06:59:17.181Z,992.91
2019-03-09T07:00:17.152Z,993.05
2019-03-09T07:01:17.126Z,992.96
2019-03-09T07:02:17.106Z,993.15
2019-03-09T07:03:17.091Z,993.10
2019-03-09T07:04:17.065Z,993.13
2019-03-09T07:05:17.040Z,993.22
2019-03-09T07:06:17.016Z,993.37
2019-03-09T07:07:16.992Z,993.45
2019-03-09T07:08:16.979Z,993.40
2019-03-09T07:09:16.946Z,993.47
2019-03-09T07:10:16.931Z,993.46
2019-03-09T07:11:16.907Z,993.39
2019-03-09T07:12:16.879Z,993.41
2019-03-09T07:13:16.855Z,993.41
2019-03-09T07:14:16.835Z,993.39
2019-03-09T07:15:16.826Z,993.37
2019-03-09T07:16:16.787Z,993.39
2019-03-09T07:17:16.764Z,993.42
2019-03-09T07:18:16.743Z,993.39
2019-03-09T07:19:16.722Z,993.57
2019-03-09T07:20:16.698Z,993.59
2019-03-09T07:21:16.674Z,993.53
2019-03-09T07:22:16.661Z,993.47
2019-03-09T07:23:16.632Z,993.46
2019-03-09T07:24:16.617Z,993.41
2019-03-09T07:25:16.584Z,993.40
2019-03-09T07:26:16.562Z,993.33
2019-03-09T07:27:16.549Z,993.29
2019-03-09T07:28:16.520Z,993.34
2019-03-09T07:29:16.497Z,993.30
2019-03-09T07:30:16.475Z,993.28
2019-03-09T07:31:16.462Z,993.26
2019-03-09T07:32:16.425Z,993.27
2019-03-09T07:33:16.416Z,993.27
2019-03-09T07:34:16.380Z,993.29
2019-03-09T07:35:16.361Z,993.24
2019-03-09T07:36:16.339Z,993.21
2019-03-09T07:37:16.313Z,993.26
2019-03-09T07:38:16.291Z,993.19
2019-03-09T07:39:16.269Z,993.15
2019-03-09T07:40:16.298Z,993.13
2019-03-09T07:41:16.231Z,993.21
2019-03-09T07:42:16.214Z,993.15
2019-03-09T07:43:16.189Z,993.20
2019-03-09T07:44:16.160Z,993.16
2019-03-09T07:45:16.142Z,993.08
2019-03-09T07:46:16.118Z,993.15
2019-03-09T07:47:16.093Z,993.04
2019-03-09T07:48:16.064Z,993.19
2019-03-09T07:49:16.049Z,993.10
2019-03-09T07:50:16.033Z,993.17
2019-03-09T07:51:16.004Z,993.15
2019-03-09T07:52:15.981Z,993.13
2019-03-09T07:53:15.961Z,993.18
2019-03-09T07:54:15.936Z,993.24
2019-03-09T07:55:15.922Z,993.27
2019-03-09T07:56:15.898Z,993.23
2019-03-09T07:57:15.892Z,993.22
2019-03-09T07:58:15.854Z,993.29
2019-03-09T07:59:15.830Z,993.35
2019-03-09T08:00:15.803Z,993.35
2019-03-09T08:01:15.807Z,993.38
2019-03-09T08:02:15.760Z,993.35
2019-03-09T08:03:15.772Z,993.41
2019-03-09T08:04:15.719Z,993.39
2019-03-09T08:05:15.697Z,993.46
2019-03-09T08:06:15.681Z,993.54
2019-03-09T08:07:15.655Z,993.38
2019-03-09T08:08:15.627Z,993.31
2019-03-09T08:09:15.612Z,993.31
2019-03-09T08:10:15.599Z,993.29
2019-03-09T08:11:15.564Z,993.43
2019-03-09T08:12:15.549Z,993.39
2019-03-09T08:13:15.543Z,993.46
2019-03-09T08:14:15.514Z,993.52
2019-03-09T08:15:15.480Z,993.42
2019-03-09T08:16:15.458Z,993.47
2019-03-09T08:17:15.428Z,993.51
2019-03-09T08:18:15.414Z,993.48
2019-03-09T08:19:15.390Z,993.48
2019-03-09T08:20:15.364Z,993.44
2019-03-09T08:21:15.351Z,993.50
2019-03-09T08:22:15.322Z,993.51
2019-03-09T08:23:15.334Z,993.54
2019-03-09T08:24:15.284Z,993.58
2019-03-09T08:25:15.259Z,993.44
2019-03-09T08:26:15.238Z,993.43
2019-03-09T08:27:15.240Z,993.52
2019-03-09T08:28:16.429Z,993.49
2019-03-09T08:29:15.173Z,993.49
2019-03-09T08:30:15.151Z,993.49
2019-03-09T08:31:15.132Z,993.49
2019-03-09T08:32:15.138Z,993.48
2019-03-09T08:33:15.093Z,993.47
2019-03-09T08:34:15.081Z,993.52
2019-03-09T08:35:15.051Z,993.48
2019-03-09T08:36:15.032Z,993.49
2019-03-09T08:37:15.006Z,993.41
2019-03-09T08:38:14.990Z,993.41
2019-03-09T08:39:14.968Z,993.41
2019-03-09T08:40:14.953Z,993.43
2019-03-09T08:41:14.928Z,993.37
2019-03-09T08:42:14.900Z,993.40
2019-03-09T08:43:14.887Z,993.44
2019-03-09T08:44:14.901Z,993.42
2019-03-09T08:45:14.853Z,993.39
2019-03-09T08:46:14.820Z,993.48
2019-03-09T08:47:14.842Z,993.44
2019-03-09T08:48:14.794Z,993.45
2019-03-09T08:49:14.759Z,993.43
2019-03-09T08:50:14.764Z,993.46
2019-03-09T08:51:14.724Z,993.61
2019-03-09T08:52:14.733Z,993.54
2019-03-09T08:53:14.709Z,993.42
2019-03-09T08:54:14.676Z,993.56
2019-03-09T08:55:14.635Z,993.60
2019-03-09T08:56:14.657Z,993.65
2019-03-09T08:57:14.622Z,993.60
2019-03-09T08:58:14.583Z,993.67
2019-03-09T08:59:14.556Z,993.68
2019-03-09T09:00:14.582Z,993.75
2019-03-09T09:01:14.547Z,993.76
2019-03-09T09:02:14.525Z,993.83
2019-03-09T09:03:14.477Z,993.90
2019-03-09T09:04:14.454Z,993.93
2019-03-09T09:05:14.435Z,993.87
2019-03-09T09:06:14.473Z,993.92
2019-03-09T09:07:14.396Z,994.01
2019-03-09T09:08:14.378Z,993.94
2019-03-09T09:09:14.361Z,993.97
2019-03-09T09:10:14.338Z,994.01
2019-03-09T09:11:14.323Z,994.11
2019-03-09T09:12:14.295Z,994.14
2019-03-09T09:13:14.278Z,994.10
2019-03-09T09:14:14.256Z,994.09
2019-03-09T09:15:15.057Z,994.12
2019-03-09T09:16:14.217Z,994.17
2019-03-09T09:17:14.194Z,994.19
2019-03-09T09:18:14.175Z,994.16
2019-03-09T09:19:14.161Z,994.21
2019-03-09T09:20:14.130Z,994.17
2019-03-09T09:21:14.133Z,994.28
2019-03-09T09:22:14.091Z,994.26
2019-03-09T09:23:14.082Z,994.21
2019-03-09T09:24:14.057Z,994.25
2019-03-09T09:25:14.032Z,994.28
2019-03-09T09:26:14.017Z,994.22
2019-03-09T09:27:13.998Z,994.27
2019-03-09T09:28:13.976Z,994.30
2019-03-09T09:29:13.949Z,994.25
2019-03-09T09:30:13.930Z,994.29
2019-03-09T09:31:13.911Z,994.14
2019-03-09T09:32:13.894Z,994.26
2019-03-09T09:33:13.884Z,994.31
2019-03-09T09:34:13.851Z,994.43
2019-03-09T09:35:13.828Z,994.47
2019-03-09T09:36:13.815Z,994.33
2019-03-09T09:37:13.793Z,994.33
2019-03-09T09:38:13.778Z,994.34
2019-03-09T09:39:13.748Z,994.31
2019-03-09T09:40:13.739Z,994.35
2019-03-09T09:41:13.703Z,994.41
2019-03-09T09:42:13.694Z,994.31
2019-03-09T09:43:13.672Z,994.38
2019-03-09T09:44:13.646Z,994.43
2019-03-09T09:45:13.627Z,994.33
2019-03-09T09:46:13.621Z,994.33
2019-03-09T09:47:13.585Z,994.26
2019-03-09T09:48:13.569Z,994.27
2019-03-09T09:49:13.544Z,994.29
2019-03-09T09:50:13.532Z,994.26
2019-03-09T09:51:13.520Z,994.30
2019-03-09T09:52:13.487Z,994.28
2019-03-09T09:53:13.467Z,994.28
2019-03-09T09:54:13.445Z,994.28
2019-03-09T09:55:13.426Z,994.26
2019-03-09T09:56:13.411Z,994.25
2019-03-09T09:57:13.387Z,994.19
2019-03-09T09:58:13.377Z,994.22
2019-03-09T09:59:14.514Z,994.13
2019-03-09T10:00:13.357Z,994.16
2019-03-09T10:01:13.309Z,994.24
2019-03-09T10:02:13.288Z,994.23
2019-03-09T10:03:13.260Z,994.16
2019-03-09T10:04:13.241Z,994.30
2019-03-09T10:05:13.219Z,994.20
2019-03-09T10:06:13.200Z,994.18
2019-03-09T10:07:13.187Z,994.17
2019-03-09T10:08:13.166Z,994.23
2019-03-09T10:09:13.163Z,994.23
2019-03-09T10:10:13.127Z,994.25
2019-03-09T10:11:13.100Z,994.24
2019-03-09T10:12:13.081Z,994.24
2019-03-09T10:13:13.062Z,994.21
2019-03-09T10:14:13.047Z,994.17
2019-03-09T10:15:13.016Z,994.24
2019-03-09T10:16:13.004Z,994.27
2019-03-09T10:17:12.984Z,994.19
2019-03-09T10:18:12.958Z,994.13
2019-03-09T10:19:12.943Z,994.20
2019-03-09T10:20:12.915Z,994.27
2019-03-09T10:21:12.912Z,994.11
2019-03-09T10:22:12.872Z,994.17
2019-03-09T10:23:12.852Z,994.15
2019-03-09T10:24:12.838Z,994.14
2019-03-09T10:25:12.812Z,994.12
2019-03-09T10:26:12.791Z,994.22
2019-03-09T10:27:12.771Z,994.14
2019-03-09T10:28:12.748Z,994.14
2019-03-09T10:29:12.761Z,994.18
2019-03-09T10:30:12.710Z,994.16
2019-03-09T10:31:12.687Z,994.22
2019-03-09T10:32:12.672Z,994.23
2019-03-09T10:33:12.652Z,994.18
2019-03-09T10:34:12.632Z,994.28
2019-03-09T10:35:12.617Z,994.26
2019-03-09T10:36:12.595Z,994.28
2019-03-09T10:37:12.575Z,994.29
2019-03-09T10:38:12.546Z,994.20
2019-03-09T10:39:12.533Z,994.27
2019-03-09T10:40:12.514Z,994.30
2019-03-09T10:41:12.488Z,994.28
2019-03-09T10:42:12.469Z,994.20
2019-03-09T10:43:12.453Z,994.28
2019-03-09T10:44:12.436Z,994.24
2019-03-09T10:45:12.410Z,994.24
2019-03-09T10:46:12.397Z,994.10
2019-03-09T10:47:12.372Z,994.22
2019-03-09T10:48:12.375Z,994.22
2019-03-09T10:49:12.333Z,994.26
2019-03-09T10:50:12.314Z,994.24
2019-03-09T10:51:12.302Z,994.20
2019-03-09T10:52:12.276Z,994.19
2019-03-09T10:53:12.260Z,994.28
2019-03-09T10:54:12.237Z,994.18
2019-03-09T10:55:12.243Z,994.18
2019-03-09T10:56:12.206Z,994.15
2019-03-09T10:57:12.186Z,994.19
2019-03-09T10:58:12.168Z,994.20
2019-03-09T10:59:12.148Z,994.07
2019-03-09T11:00:12.125Z,994.15
2019-03-09T11:01:12.114Z,994.11
2019-03-09T11:02:12.087Z,994.12
2019-03-09T11:03:12.068Z,994.09
2019-03-09T11:04:12.051Z,994.10
2019-03-09T11:05:12.048Z,994.03
2019-03-09T11:06:12.016Z,994.01
2019-03-09T11:07:11.990Z,994.01
2019-03-09T11:08:11.987Z,993.98
2019-03-09T11:09:11.952Z,993.96
2019-03-09T11:10:11.943Z,993.98
2019-03-09T11:11:11.918Z,993.98
2019-03-09T11:12:11.915Z,993.99
2019-03-09T11:13:11.879Z,993.93
2019-03-09T11:14:11.861Z,993.94
2019-03-09T11:15:11.893Z,993.85
2019-03-09T11:16:11.821Z,993.85
2019-03-09T11:17:11.801Z,993.78
2019-03-09T11:18:11.785Z,993.87
2019-03-09T11:19:11.772Z,993.90
2019-03-09T11:20:11.747Z,993.92
2019-03-09T11:21:11.727Z,993.90
2019-03-09T11:22:11.715Z,993.97
2019-03-09T11:23:11.696Z,993.95
2019-03-09T11:24:11.677Z,993.89
2019-03-09T11:25:11.657Z,993.99
2019-03-09T11:26:11.680Z,994.01
2019-03-09T11:27:11.628Z,993.96
2019-03-09T11:28:11.594Z,993.96
2019-03-09T11:29:11.600Z,994.00
2019-03-09T11:30:11.559Z,993.95
2019-03-09T11:31:11.546Z,994.01
2019-03-09T11:32:11.521Z,994.01
2019-03-09T11:33:11.509Z,993.98
2019-03-09T11:34:11.496Z,994.01
2019-03-09T11:35:11.474Z,994.02
2019-03-09T11:36:11.454Z,993.98
2019-03-09T11:37:11.438Z,993.99
2019-03-09T11:38:11.413Z,994.05
2019-03-09T11:39:11.396Z,994.06
2019-03-09T11:40:11.378Z,994.00
2019-03-09T11:41:18.839Z,994.05
2019-03-09T11:42:11.336Z,994.15
2019-03-09T11:43:11.317Z,993.93
2019-03-09T11:44:11.304Z,993.93
2019-03-09T11:45:11.295Z,993.90
2019-03-09T11:46:11.263Z,993.87
2019-03-09T11:47:11.243Z,993.76
2019-03-09T11:48:11.224Z,993.78
2019-03-09T11:49:11.205Z,993.74
2019-03-09T11:50:11.199Z,993.86
2019-03-09T11:51:11.171Z,993.66
2019-03-09T11:52:19.542Z,993.58
2019-03-09T11:53:11.132Z,993.56
2019-03-09T11:54:11.112Z,993.47
2019-03-09T11:55:11.093Z,993.46
2019-03-09T11:56:11.080Z,993.41
2019-03-09T11:57:11.061Z,993.37
2019-03-09T11:58:11.040Z,993.29
2019-03-09T11:59:11.028Z,993.28
2019-03-09T12:00:11.008Z,993.25
2019-03-09T12:01:10.989Z,993.31
2019-03-09T12:02:10.973Z,993.29
2019-03-09T12:03:10.947Z,993.37
2019-03-09T12:04:10.931Z,993.51
2019-03-09T12:05:10.905Z,993.64
2019-03-09T12:06:10.894Z,993.75
2019-03-09T12:07:10.876Z,993.80
2019-03-09T12:08:10.851Z,993.92
2019-03-09T12:09:10.879Z,993.96
2019-03-09T12:10:10.820Z,994.07
2019-03-09T12:11:10.796Z,994.00
2019-03-09T12:12:10.778Z,993.97
2019-03-09T12:13:10.756Z,993.99
2019-03-09T12:14:10.740Z,993.98
2019-03-09T12:15:10.725Z,993.90
2019-03-09T12:16:10.698Z,993.86
2019-03-09T12:17:12.964Z,993.87
2019-03-09T12:18:10.671Z,993.81
2019-03-09T12:19:10.639Z,993.78
2019-03-09T12:20:10.618Z,993.76
2019-03-09T12:21:10.597Z,993.75
2019-03-09T12:22:10.587Z,993.77
2019-03-09T12:23:10.562Z,993.55
2019-03-09T12:24:16.744Z,993.51
2019-03-09T12:25:10.521Z,993.51
2019-03-09T12:26:10.504Z,993.44
2019-03-09T12:27:10.490Z,993.44
2019-03-09T12:28:10.460Z,993.42